Enter the Airport ICAO Code

Search by Airport or City

Current Weather

KMFE | McAllen Miller International Airport

McAllen, Texas, United States

Last Update 1 Hour Ago

Clear Sky at Low Altitude

Temperature of 22 ºC

Moderate Winds from SouthEast

Temperature

22 ºC

Dew Point Temperature

19 ºC

Relative Humidity

83.2 %

Wind Direction

SouthEast (150º, Without Significant Variations)

Wind Velocity

19 km/h (10 kt)

Gusts

None

Visibility

Greater than 10 Miles

Sea Level Pressure

29.91 inHg (Inches of Mercury)

Layers of Clouds

None

METAR KMFE 090253Z 15010KT 10SM CLR 22/19 A2991 RMK AO2 SLP127 T02220194 50005

Weather Forecast

KMFE | McAllen Miller International Airport

McAllen, Texas, United States

Forecast valid for the next 20 Hours

From now on it is expected:

Mist

Light to Moderate Winds from South

In 10 hours it is expected the begining of:

Mostly Cloudy Sky

Moderate Winds from South with Gusts

In 13 hours it is expected the begining of:

Partly Cloudy Sky

Moderate to Strong Winds from SouthEast with Gusts

Maximum Temperature

No Data

Minimum Temperature

No Data

TAF KMFE 082320Z 0900/0924 15010KT P6SM SKC FM090200 16008KT 5SM BR SCT020 FM091400 16012G17KT P6SM BKN025 FM091700 15017G25KT P6SM SCT040